Dallas, Iowa
Current Conditions -  °F | °C
As of 7:15 PM on Wednesday 22 Oct 2014 (Local Time) from KOXV Reporting Station
Broken Clouds Broken Clouds  
Wind Chill: 59°   Ceiling: 7500
Heat Index: 59°   Visibility: 10mi
Dew Point: 43°   Wind: 10mph
Humidity: 55%   Direction: 140°SE
Pressure: 30.13"   Gusts: 16mph
Location:  41.23°N, 93.24°W
Report Text: KOXV 230015Z AUTO 14009G14KT 10SM FEW048 SCT060 BKN075 15/06 A3013 RMK AO2
Loading
Personal Weather Stations






























Interactive Weather Map
Tropical Storm Tracking
New forecast layout! Learn more

10-Day Weather Forecast

Advertisements
Track Severe Weather on mobile